sensor_id;sensor_type;location;lat;lon;timestamp;pressure;altitude;pressure_sealevel;temperature;humidity
56402;BME280;42299;35.160;26.100;2023-03-22T00:00:03;100796.75;;;15.03;100.00
56402;BME280;42299;35.160;26.100;2023-03-22T00:01:27;100802.03;;;14.97;100.00
56402;BME280;42299;35.160;26.100;2023-03-22T00:02:52;100806.50;;;14.93;100.00
56402;BME280;42299;35.160;26.100;2023-03-22T00:04:14;100810.94;;;14.88;100.00
56402;BME280;42299;35.160;26.100;2023-03-22T00:05:37;100808.25;;;14.84;100.00
56402;BME280;42299;35.160;26.100;2023-03-22T00:07:02;100806.53;;;14.77;100.00
56402;BME280;42299;35.160;26.100;2023-03-22T00:08:23;100802.09;;;14.68;100.00
56402;BME280;42299;35.160;26.100;2023-03-22T00:09:46;100802.09;;;14.62;100.00
56402;BME280;42299;35.160;26.100;2023-03-22T00:11:09;100800.31;;;14.52;100.00
56402;BME280;42299;35.160;26.100;2023-03-22T00:12:33;100809.16;;;14.42;100.00
56402;BME280;42299;35.160;26.100;2023-03-22T00:13:54;100800.25;;;14.32;100.00
56402;BME280;42299;35.160;26.100;2023-03-22T00:15:18;100795.84;;;14.26;100.00
56402;BME280;42299;35.160;26.100;2023-03-22T00:16:40;100796.72;;;14.19;100.00
56402;BME280;42299;35.160;26.100;2023-03-22T00:18:03;100791.41;;;14.13;100.00
56402;BME280;42299;35.160;26.100;2023-03-22T00:19:26;100790.47;;;14.05;100.00
56402;BME280;42299;35.160;26.100;2023-03-22T00:20:51;100793.16;;;13.98;100.00
56402;BME280;42299;35.160;26.100;2023-03-22T00:22:16;100784.28;;;13.91;100.00
56402;BME280;42299;35.160;26.100;2023-03-22T00:23:38;100786.94;;;13.89;100.00
56402;BME280;42299;35.160;26.100;2023-03-22T00:25:00;100786.03;;;13.87;100.00
56402;BME280;42299;35.160;26.100;2023-03-22T00:26:24;100800.19;;;13.88;100.00
56402;BME280;42299;35.160;26.100;2023-03-22T00:27:45;100800.19;;;13.88;100.00
56402;BME280;42299;35.160;26.100;2023-03-22T00:29:08;100791.34;;;13.89;100.00
56402;BME280;42299;35.160;26.100;2023-03-22T00:30:32;100799.31;;;13.89;100.00
56402;BME280;42299;35.160;26.100;2023-03-22T00:31:53;100806.38;;;13.91;100.00
56402;BME280;42299;35.160;26.100;2023-03-22T00:33:16;100817.91;;;13.95;100.00
56402;BME280;42299;35.160;26.100;2023-03-22T00:34:39;100822.34;;;13.98;100.00
56402;BME280;42299;35.160;26.100;2023-03-22T00:36:05;100816.16;;;14.02;100.00
56402;BME280;42299;35.160;26.100;2023-03-22T00:37:30;100817.03;;;14.05;100.00
56402;BME280;42299;35.160;26.100;2023-03-22T00:38:54;100817.94;;;14.04;100.00
56402;BME280;42299;35.160;26.100;2023-03-22T00:40:17;100824.13;;;14.06;100.00
56402;BME280;42299;35.160;26.100;2023-03-22T00:41:38;100823.22;;;14.00;100.00
56402;BME280;42299;35.160;26.100;2023-03-22T00:43:01;100826.75;;;14.00;100.00
56402;BME280;42299;35.160;26.100;2023-03-22T00:44:22;100831.19;;;14.01;100.00
56402;BME280;42299;35.160;26.100;2023-03-22T00:45:46;100833.84;;;14.01;100.00
56402;BME280;42299;35.160;26.100;2023-03-22T00:47:07;100841.78;;;14.00;100.00
56402;BME280;42299;35.160;26.100;2023-03-22T00:48:32;100840.03;;;13.95;100.00
56402;BME280;42299;35.160;26.100;2023-03-22T00:49:55;100817.91;;;13.95;100.00
56402;BME280;42299;35.160;26.100;2023-03-22T00:51:17;100810.81;;;13.94;100.00
56402;BME280;42299;35.160;26.100;2023-03-22T00:52:41;100819.66;;;13.99;100.00
56402;BME280;42299;35.160;26.100;2023-03-22T00:54:03;100823.22;;;14.00;100.00
56402;BME280;42299;35.160;26.100;2023-03-22T00:55:26;100826.75;;;13.98;100.00
56402;BME280;42299;35.160;26.100;2023-03-22T00:56:48;100817.03;;;13.98;100.00
56402;BME280;42299;35.160;26.100;2023-03-22T00:58:12;100816.16;;;13.97;100.00
56402;BME280;42299;35.160;26.100;2023-03-22T00:59:34;100808.16;;;13.92;100.00
56402;BME280;42299;35.160;26.100;2023-03-22T01:00:58;100799.31;;;13.87;100.00
56402;BME280;42299;35.160;26.100;2023-03-22T01:02:21;100792.19;;;13.79;100.00
56402;BME280;42299;35.160;26.100;2023-03-22T01:03:49;100783.34;;;13.75;100.00
56402;BME280;42299;35.160;26.100;2023-03-22T01:05:12;100770.97;;;13.70;100.00
56402;BME280;42299;35.160;26.100;2023-03-22T01:06:36;100766.53;;;13.67;100.00
56402;BME280;42299;35.160;26.100;2023-03-22T01:08:03;100759.44;;;13.63;100.00
56402;BME280;42299;35.160;26.100;2023-03-22T01:09:29;100759.44;;;13.57;100.00
56402;BME280;42299;35.160;26.100;2023-03-22T01:10:53;100755.88;;;13.53;100.00
56402;BME280;42299;35.160;26.100;2023-03-22T01:12:17;100742.63;;;13.50;100.00
56402;BME280;42299;35.160;26.100;2023-03-22T01:13:39;100740.81;;;13.48;100.00
56402;BME280;42299;35.160;26.100;2023-03-22T01:15:03;100743.47;;;13.46;100.00
56402;BME280;42299;35.160;26.100;2023-03-22T01:16:25;100741.69;;;13.47;100.00
56402;BME280;42299;35.160;26.100;2023-03-22T01:17:48;100747.03;;;13.51;100.00
56402;BME280;42299;35.160;26.100;2023-03-22T01:19:10;100774.44;;;13.50;100.00
56402;BME280;42299;35.160;26.100;2023-03-22T01:20:35;100784.13;;;13.48;100.00
56402;BME280;42299;35.160;26.100;2023-03-22T01:21:58;100787.69;;;13.49;100.00
56402;BME280;42299;35.160;26.100;2023-03-22T01:23:21;100784.13;;;13.48;100.00
56402;BME280;42299;35.160;26.100;2023-03-22T01:24:44;100778.84;;;13.48;100.00
56402;BME280;42299;35.160;26.100;2023-03-22T01:26:06;100769.09;;;13.46;100.00
56402;BME280;42299;35.160;26.100;2023-03-22T01:27:30;100795.59;;;13.41;100.00
56402;BME280;42299;35.160;26.100;2023-03-22T01:28:52;100830.91;;;13.33;100.00
56402;BME280;42299;35.160;26.100;2023-03-22T01:30:15;100842.38;;;13.29;100.00
56402;BME280;42299;35.160;26.100;2023-03-22T01:31:37;100821.16;;;13.27;100.00
56402;BME280;42299;35.160;26.100;2023-03-22T01:32:59;100801.72;;;13.28;100.00
56402;BME280;42299;35.160;26.100;2023-03-22T01:34:22;100790.25;;;13.29;100.00
56402;BME280;42299;35.160;26.100;2023-03-22T01:35:44;100785.81;;;13.33;100.00
56402;BME280;42299;35.160;26.100;2023-03-22T01:37:07;100767.28;;;13.36;100.00
56402;BME280;42299;35.160;26.100;2023-03-22T01:38:31;100756.72;;;13.37;100.00
56402;BME280;42299;35.160;26.100;2023-03-22T01:39:55;100742.56;;;13.37;100.00
56402;BME280;42299;35.160;26.100;2023-03-22T01:41:16;100715.13;;;13.33;100.00
56402;BME280;42299;35.160;26.100;2023-03-22T01:42:42;100691.28;;;13.36;100.00
56402;BME280;42299;35.160;26.100;2023-03-22T01:44:10;100686.88;;;13.41;100.00
56402;BME280;42299;35.160;26.100;2023-03-22T01:45:43;100701.03;;;13.42;100.00
56402;BME280;42299;35.160;26.100;2023-03-22T01:47:08;100722.22;;;13.40;100.00
56402;BME280;42299;35.160;26.100;2023-03-22T01:48:32;100749.63;;;13.41;100.00
56402;BME280;42299;35.160;26.100;2023-03-22T01:49:55;100774.41;;;13.44;100.00
56402;BME280;42299;35.160;26.100;2023-03-22T01:51:19;100772.63;;;13.46;100.00
56402;BME280;42299;35.160;26.100;2023-03-22T01:53:06;100746.13;;;13.46;100.00
56402;BME280;42299;35.160;26.100;2023-03-22T01:54:36;100733.78;;;13.50;100.00
56402;BME280;42299;35.160;26.100;2023-03-22T01:56:13;100741.72;;;13.50;100.00
56402;BME280;42299;35.160;26.100;2023-03-22T01:57:38;100755.00;;;13.51;100.00
56402;BME280;42299;35.160;26.100;2023-03-22T01:59:06;100761.16;;;13.53;100.00
56402;BME280;42299;35.160;26.100;2023-03-22T02:00:49;100758.53;;;13.52;100.00
56402;BME280;42299;35.160;26.100;2023-03-22T02:02:34;100763.81;;;13.50;100.00
56402;BME280;42299;35.160;26.100;2023-03-22T02:04:10;100770.00;;;13.52;100.00
56402;BME280;42299;35.160;26.100;2023-03-22T02:05:34;100747.94;;;13.52;100.00
56402;BME280;42299;35.160;26.100;2023-03-22T02:06:57;100744.38;;;13.54;100.00
56402;BME280;42299;35.160;26.100;2023-03-22T02:08:22;100745.25;;;13.53;100.00
56402;BME280;42299;35.160;26.100;2023-03-22T02:09:52;100732.91;;;13.51;100.00
56402;BME280;42299;35.160;26.100;2023-03-22T02:11:27;100728.47;;;13.51;100.00
56402;BME280;42299;35.160;26.100;2023-03-22T02:12:55;100719.59;;;13.42;100.00
56402;BME280;42299;35.160;26.100;2023-03-22T02:14:43;100716.97;;;13.45;100.00
56402;BME280;42299;35.160;26.100;2023-03-22T02:16:37;100698.41;;;13.45;100.00
56402;BME280;42299;35.160;26.100;2023-03-22T02:18:19;100691.31;;;13.47;100.00
56402;BME280;42299;35.160;26.100;2023-03-22T02:20:22;100678.06;;;13.45;100.00
56402;BME280;42299;35.160;26.100;2023-03-22T02:22:19;100674.53;;;13.45;100.00
56402;BME280;42299;35.160;26.100;2023-03-22T02:24:02;100679.81;;;13.40;100.00
56402;BME280;42299;35.160;26.100;2023-03-22T02:25:55;100677.16;;;13.46;100.00
56402;BME280;42299;35.160;26.100;2023-03-22T02:27:50;100667.47;;;13.51;100.00
56402;BME280;42299;35.160;26.100;2023-03-22T02:29:18;100662.16;;;13.54;100.00
56402;BME280;42299;35.160;26.100;2023-03-22T02:33:10;100679.84;;;13.54;100.00
56402;BME280;42299;35.160;26.100;2023-03-22T02:36:53;100679.84;;;13.51;100.00
56402;BME280;42299;35.160;26.100;2023-03-22T02:40:26;100719.63;;;13.51;100.00
56402;BME280;42299;35.160;26.100;2023-03-22T02:41:58;100727.56;;;13.54;100.00
56402;BME280;42299;35.160;26.100;2023-03-22T02:43:32;100726.69;;;13.60;100.00
56402;BME280;42299;35.160;26.100;2023-03-22T02:45:02;100712.56;;;13.62;100.00
56402;BME280;42299;35.160;26.100;2023-03-22T02:46:32;100725.88;;;13.65;100.00
56402;BME280;42299;35.160;26.100;2023-03-22T02:48:04;100742.66;;;13.64;100.00
56402;BME280;42299;35.160;26.100;2023-03-22T02:49:32;100752.38;;;13.65;100.00
56402;BME280;42299;35.160;26.100;2023-03-22T02:50:58;100755.91;;;13.67;100.00
56402;BME280;42299;35.160;26.100;2023-03-22T02:52:25;100757.69;;;13.70;100.00
56402;BME280;42299;35.160;26.100;2023-03-22T02:53:51;100767.44;;;13.71;100.00
56402;BME280;42299;35.160;26.100;2023-03-22T02:55:20;100769.22;;;13.72;100.00
56402;BME280;42299;35.160;26.100;2023-03-22T02:56:46;100766.53;;;13.73;100.00
56402;BME280;42299;35.160;26.100;2023-03-22T02:58:13;100765.66;;;13.76;100.00
56402;BME280;42299;35.160;26.100;2023-03-22T02:59:40;100749.75;;;13.74;100.00
56402;BME280;42299;35.160;26.100;2023-03-22T03:01:06;100757.72;;;13.76;100.00
56402;BME280;42299;35.160;26.100;2023-03-22T03:02:31;100756.84;;;13.77;100.00
56402;BME280;42299;35.160;26.100;2023-03-22T03:03:55;100754.19;;;13.81;100.00
56402;BME280;42299;35.160;26.100;2023-03-22T03:05:20;100755.97;;;13.84;100.00
56402;BME280;42299;35.160;26.100;2023-03-22T03:06:44;100756.84;;;13.87;100.00
56402;BME280;42299;35.160;26.100;2023-03-22T03:08:10;100749.78;;;13.91;100.00
56402;BME280;42299;35.160;26.100;2023-03-22T03:09:35;100732.06;;;13.91;100.00
56402;BME280;42299;35.160;26.100;2023-03-22T03:11:02;100740.06;;;13.90;100.00
56402;BME280;42299;35.160;26.100;2023-03-22T03:12:25;100734.75;;;13.90;100.00
56402;BME280;42299;35.160;26.100;2023-03-22T03:13:50;100728.53;;;13.88;100.00
56402;BME280;42299;35.160;26.100;2023-03-22T03:15:14;100698.47;;;13.89;100.00
56402;BME280;42299;35.160;26.100;2023-03-22T03:16:38;100669.28;;;13.89;100.00
56402;BME280;42299;35.160;26.100;2023-03-22T03:18:10;100653.34;;;13.86;100.00
56402;BME280;42299;35.160;26.100;2023-03-22T03:19:42;100646.28;;;13.80;100.00
56402;BME280;42299;35.160;26.100;2023-03-22T03:21:12;100650.72;;;13.77;100.00
56402;BME280;42299;35.160;26.100;2023-03-22T03:22:47;100638.31;;;13.68;100.00
56402;BME280;42299;35.160;26.100;2023-03-22T03:24:18;100657.75;;;13.60;100.00
56402;BME280;42299;35.160;26.100;2023-03-22T03:25:46;100690.44;;;13.49;100.00
56402;BME280;42299;35.160;26.100;2023-03-22T03:27:14;100724.00;;;13.41;100.00
56402;BME280;42299;35.160;26.100;2023-03-22T03:28:46;100730.19;;;13.40;100.00
56402;BME280;42299;35.160;26.100;2023-03-22T03:30:13;100728.44;;;13.42;100.00
56402;BME280;42299;35.160;26.100;2023-03-22T03:31:41;100711.66;;;13.45;100.00
56402;BME280;42299;35.160;26.100;2023-03-22T03:33:07;100709.88;;;13.47;100.00
56402;BME280;42299;35.160;26.100;2023-03-22T03:34:32;100712.53;;;13.48;100.00
56402;BME280;42299;35.160;26.100;2023-03-22T03:36:00;100721.38;;;13.49;100.00
56402;BME280;42299;35.160;26.100;2023-03-22T03:37:26;100737.28;;;13.47;100.00
56402;BME280;42299;35.160;26.100;2023-03-22T03:38:53;100755.84;;;13.44;100.00
56402;BME280;42299;35.160;26.100;2023-03-22T03:40:22;100760.25;;;13.44;100.00
56402;BME280;42299;35.160;26.100;2023-03-22T03:41:48;100762.94;;;13.45;100.00
56402;BME280;42299;35.160;26.100;2023-03-22T03:43:13;100771.75;;;13.47;100.00
56402;BME280;42299;35.160;26.100;2023-03-22T03:44:37;100755.88;;;13.50;100.00
56402;BME280;42299;35.160;26.100;2023-03-22T03:46:00;100748.78;;;13.52;100.00
56402;BME280;42299;35.160;26.100;2023-03-22T03:47:23;100732.91;;;13.51;100.00
56402;BME280;42299;35.160;26.100;2023-03-22T03:48:47;100729.34;;;13.50;100.00
56402;BME280;42299;35.160;26.100;2023-03-22T03:50:12;100716.09;;;13.50;100.00
56402;BME280;42299;35.160;26.100;2023-03-22T03:51:45;100701.03;;;13.52;100.00
56402;BME280;42299;35.160;26.100;2023-03-22T03:53:07;100700.16;;;13.53;100.00
56402;BME280;42299;35.160;26.100;2023-03-22T03:54:30;100697.56;;;13.58;100.00
56402;BME280;42299;35.160;26.100;2023-03-22T03:55:52;100698.44;;;13.65;100.00
56402;BME280;42299;35.160;26.100;2023-03-22T03:57:14;100703.75;;;13.72;100.00
56402;BME280;42299;35.160;26.100;2023-03-22T03:58:39;100704.66;;;13.76;100.00
56402;BME280;42299;35.160;26.100;2023-03-22T04:00:01;100692.25;;;13.73;100.00
56402;BME280;42299;35.160;26.100;2023-03-22T04:01:43;100694.03;;;13.68;100.00
56402;BME280;42299;35.160;26.100;2023-03-22T04:03:12;100698.44;;;13.62;100.00
56402;BME280;42299;35.160;26.100;2023-03-22T04:04:57;100700.16;;;13.53;100.00
56402;BME280;42299;35.160;26.100;2023-03-22T04:06:19;100693.09;;;13.49;100.00
56402;BME280;42299;35.160;26.100;2023-03-22T04:07:45;100697.50;;;13.46;100.00
56402;BME280;42299;35.160;26.100;2023-03-22T04:09:08;100701.94;;;13.45;100.00
56402;BME280;42299;35.160;26.100;2023-03-22T04:10:35;100713.41;;;13.46;100.00
56402;BME280;42299;35.160;26.100;2023-03-22T04:11:58;100724.91;;;13.43;100.00
56402;BME280;42299;35.160;26.100;2023-03-22T04:13:21;100741.72;;;13.45;100.00
56402;BME280;42299;35.160;26.100;2023-03-22T04:14:46;100758.47;;;13.46;100.00
56402;BME280;42299;35.160;26.100;2023-03-22T04:16:16;100766.44;;;13.46;100.00
56402;BME280;42299;35.160;26.100;2023-03-22T04:17:38;100764.69;;;13.49;100.00
56402;BME280;42299;35.160;26.100;2023-03-22T04:19:01;100764.69;;;13.49;100.00
56402;BME280;42299;35.160;26.100;2023-03-22T04:20:24;100762.06;;;13.51;100.00
56402;BME280;42299;35.160;26.100;2023-03-22T04:21:47;100766.50;;;13.58;100.00
56402;BME280;42299;35.160;26.100;2023-03-22T04:23:09;100763.88;;;13.69;100.00
56402;BME280;42299;35.160;26.100;2023-03-22T04:24:30;100769.19;;;13.73;100.00
56402;BME280;42299;35.160;26.100;2023-03-22T04:25:53;100769.22;;;13.78;100.00
56402;BME280;42299;35.160;26.100;2023-03-22T04:27:29;100762.13;;;13.81;100.00
56402;BME280;42299;35.160;26.100;2023-03-22T04:28:55;100750.66;;;13.84;100.00
56402;BME280;42299;35.160;26.100;2023-03-22T04:30:21;100740.94;;;13.89;100.00
56402;BME280;42299;35.160;26.100;2023-03-22T04:32:22;100740.94;;;13.95;100.00
56402;BME280;42299;35.160;26.100;2023-03-22T04:33:47;100734.75;;;14.02;100.00
56402;BME280;42299;35.160;26.100;2023-03-22T04:35:17;100723.25;;;14.05;100.00
56402;BME280;42299;35.160;26.100;2023-03-22T04:36:40;100715.28;;;14.08;100.00
56402;BME280;42299;35.160;26.100;2023-03-22T04:38:31;100710.00;;;14.08;100.00
56402;BME280;42299;35.160;26.100;2023-03-22T04:39:53;100700.25;;;14.10;100.00
56402;BME280;42299;35.160;26.100;2023-03-22T04:41:36;100702.91;;;14.10;100.00
56402;BME280;42299;35.160;26.100;2023-03-22T04:42:59;100709.09;;;14.12;100.00
56402;BME280;42299;35.160;26.100;2023-03-22T04:44:38;100706.47;;;14.10;100.00
56402;BME280;42299;35.160;26.100;2023-03-22T04:46:02;100709.97;;;14.12;100.00
56402;BME280;42299;35.160;26.100;2023-03-22T04:47:31;100708.22;;;14.13;100.00
56402;BME280;42299;35.160;26.100;2023-03-22T04:48:55;100721.50;;;14.14;100.00
56402;BME280;42299;35.160;26.100;2023-03-22T04:50:18;100728.59;;;14.17;100.00
56402;BME280;42299;35.160;26.100;2023-03-22T04:51:44;100745.41;;;14.17;100.00
56402;BME280;42299;35.160;26.100;2023-03-22T04:53:23;100765.75;;;14.17;100.00
56402;BME280;42299;35.160;26.100;2023-03-22T04:54:50;100772.81;;;14.18;100.00
56402;BME280;42299;35.160;26.100;2023-03-22T04:56:14;100772.81;;;14.21;100.00
56402;BME280;42299;35.160;26.100;2023-03-22T04:57:36;100773.72;;;14.21;100.00
56402;BME280;42299;35.160;26.100;2023-03-22T04:58:59;100774.59;;;14.20;100.00
56402;BME280;42299;35.160;26.100;2023-03-22T05:00:21;100764.84;;;14.19;100.00
56402;BME280;42299;35.160;26.100;2023-03-22T05:01:46;100764.00;;;14.17;100.00
56402;BME280;42299;35.160;26.100;2023-03-22T05:03:11;100757.78;;;14.15;100.00
56402;BME280;42299;35.160;26.100;2023-03-22T05:04:37;100754.22;;;14.13;100.00
56402;BME280;42299;35.160;26.100;2023-03-22T05:06:08;100750.69;;;14.13;100.00
56402;BME280;42299;35.160;26.100;2023-03-22T05:07:40;100740.97;;;14.04;100.00
56402;BME280;42299;35.160;26.100;2023-03-22T05:09:03;100730.34;;;14.09;100.00
56402;BME280;42299;35.160;26.100;2023-03-22T05:10:26;100721.47;;;14.11;100.00
56402;BME280;42299;35.160;26.100;2023-03-22T05:11:51;100702.91;;;14.13;100.00
56402;BME280;42299;35.160;26.100;2023-03-22T05:13:24;100688.75;;;14.14;100.00
56402;BME280;42299;35.160;26.100;2023-03-22T05:14:47;100691.38;;;14.18;100.00
56402;BME280;42299;35.160;26.100;2023-03-22T05:16:11;100686.97;;;14.19;100.00
56402;BME280;42299;35.160;26.100;2023-03-22T05:17:43;100685.22;;;14.16;100.00
56402;BME280;42299;35.160;26.100;2023-03-22T05:19:07;100690.50;;;14.13;100.00
56402;BME280;42299;35.160;26.100;2023-03-22T05:20:38;100703.78;;;14.12;100.00
56402;BME280;42299;35.160;26.100;2023-03-22T05:22:08;100710.88;;;14.14;100.00
56402;BME280;42299;35.160;26.100;2023-03-22T05:23:44;100707.34;;;14.17;100.00
56402;BME280;42299;35.160;26.100;2023-03-22T05:25:08;100711.75;;;14.19;100.00
56402;BME280;42299;35.160;26.100;2023-03-22T05:26:31;100713.53;;;14.19;100.00
56402;BME280;42299;35.160;26.100;2023-03-22T05:27:58;100721.50;;;14.22;100.00
56402;BME280;42299;35.160;26.100;2023-03-22T05:29:33;100720.59;;;14.26;100.00
56402;BME280;42299;35.160;26.100;2023-03-22T05:31:04;100726.78;;;14.31;100.00
56402;BME280;42299;35.160;26.100;2023-03-22T05:32:36;100732.13;;;14.39;100.00
56402;BME280;42299;35.160;26.100;2023-03-22T05:34:05;100733.91;;;14.46;100.00
56402;BME280;42299;35.160;26.100;2023-03-22T05:35:30;100740.09;;;14.51;100.00
56402;BME280;42299;35.160;26.100;2023-03-22T05:36:54;100738.31;;;14.53;100.00
56402;BME280;42299;35.160;26.100;2023-03-22T05:38:23;100735.69;;;14.54;100.00
56402;BME280;42299;35.160;26.100;2023-03-22T05:39:47;100733.91;;;14.55;100.00
56402;BME280;42299;35.160;26.100;2023-03-22T05:41:10;100739.22;;;14.55;100.00
56402;BME280;42299;35.160;26.100;2023-03-22T05:42:33;100744.53;;;14.56;100.00
56402;BME280;42299;35.160;26.100;2023-03-22T05:44:01;100751.59;;;14.59;100.00
56402;BME280;42299;35.160;26.100;2023-03-22T05:45:24;100750.72;;;14.63;100.00
56402;BME280;42299;35.160;26.100;2023-03-22T05:47:01;100757.81;;;14.67;100.00
56402;BME280;42299;35.160;26.100;2023-03-22T05:48:27;100757.81;;;14.70;100.00
56402;BME280;42299;35.160;26.100;2023-03-22T05:49:50;100771.94;;;14.70;100.00
56402;BME280;42299;35.160;26.100;2023-03-22T05:51:16;100765.78;;;14.70;100.00
56402;BME280;42299;35.160;26.100;2023-03-22T05:52:42;100762.22;;;14.71;100.00
56402;BME280;42299;35.160;26.100;2023-03-22T05:54:21;100756.00;;;14.72;100.00
56402;BME280;42299;35.160;26.100;2023-03-22T05:55:44;100746.28;;;14.75;100.00
56402;BME280;42299;35.160;26.100;2023-03-22T05:57:07;100750.72;;;14.77;100.00
56402;BME280;42299;35.160;26.100;2023-03-22T05:58:31;100751.56;;;14.79;100.00
56402;BME280;42299;35.160;26.100;2023-03-22T05:59:54;100756.00;;;14.83;100.00
56402;BME280;42299;35.160;26.100;2023-03-22T06:01:22;100754.22;;;14.88;100.00
56402;BME280;42299;35.160;26.100;2023-03-22T06:03:04;100755.97;;;14.90;100.00
56402;BME280;42299;35.160;26.100;2023-03-22T06:04:32;100753.31;;;14.93;100.00
56402;BME280;42299;35.160;26.100;2023-03-22T06:06:01;100750.66;;;14.99;100.00
56402;BME280;42299;35.160;26.100;2023-03-22T06:07:49;100753.28;;;15.05;100.00
56402;BME280;42299;35.160;26.100;2023-03-22T06:09:13;100770.13;;;15.07;100.00
56402;BME280;42299;35.160;26.100;2023-03-22T06:10:36;100768.38;;;15.09;100.00
56402;BME280;42299;35.160;26.100;2023-03-22T06:11:57;100766.56;;;15.11;100.00
56402;BME280;42299;35.160;26.100;2023-03-22T06:13:21;100767.44;;;15.13;100.00
56402;BME280;42299;35.160;26.100;2023-03-22T06:14:43;100755.94;;;15.13;100.00
56402;BME280;42299;35.160;26.100;2023-03-22T06:16:25;100750.59;;;15.11;100.00
56402;BME280;42299;35.160;26.100;2023-03-22T06:17:48;100745.28;;;15.11;100.00
56402;BME280;42299;35.160;26.100;2023-03-22T06:19:14;100747.94;;;15.10;100.00
56402;BME280;42299;35.160;26.100;2023-03-22T06:20:37;100735.56;;;15.06;100.00
56402;BME280;42299;35.160;26.100;2023-03-22T06:22:20;100732.94;;;15.01;100.00
56402;BME280;42299;35.160;26.100;2023-03-22T06:23:43;100732.94;;;15.01;100.00
56402;BME280;42299;35.160;26.100;2023-03-22T06:25:05;100727.63;;;14.95;100.00
56402;BME280;42299;35.160;26.100;2023-03-22T06:26:33;100722.28;;;14.97;100.00
56402;BME280;42299;35.160;26.100;2023-03-22T06:27:56;100714.31;;;14.97;100.00
56402;BME280;42299;35.160;26.100;2023-03-22T06:29:19;100708.13;;;14.96;100.00
56402;BME280;42299;35.160;26.100;2023-03-22T06:30:44;100713.47;;;14.96;100.00
56402;BME280;42299;35.160;26.100;2023-03-22T06:32:14;100716.97;;;14.98;100.00
56402;BME280;42299;35.160;26.100;2023-03-22T06:33:37;100722.28;;;15.01;100.00
56402;BME280;42299;35.160;26.100;2023-03-22T06:35:12;100716.97;;;15.03;100.00
56402;BME280;42299;35.160;26.100;2023-03-22T06:36:35;100716.94;;;15.07;100.00
56402;BME280;42299;35.160;26.100;2023-03-22T06:38:03;100721.38;;;15.16;100.00
56402;BME280;42299;35.160;26.100;2023-03-22T06:39:26;100738.16;;;15.26;100.00
56402;BME280;42299;35.160;26.100;2023-03-22T06:40:49;100730.13;;;15.36;100.00
56402;BME280;42299;35.160;26.100;2023-03-22T06:42:12;100729.19;;;15.46;100.00
56402;BME280;42299;35.160;26.100;2023-03-22T06:43:36;100727.38;;;15.51;100.00
56402;BME280;42299;35.160;26.100;2023-03-22T06:45:09;100724.72;;;15.56;100.00
56402;BME280;42299;35.160;26.100;2023-03-22T06:46:32;100730.91;;;15.63;100.00
56402;BME280;42299;35.160;26.100;2023-03-22T06:48:03;100732.69;;;15.68;100.00
56402;BME280;42299;35.160;26.100;2023-03-22T06:49:32;100727.31;;;15.73;100.00
56402;BME280;42299;35.160;26.100;2023-03-22T06:50:53;100726.34;;;15.84;100.00
56402;BME280;42299;35.160;26.100;2023-03-22T06:52:22;100718.25;;;15.97;100.00
56402;BME280;42299;35.160;26.100;2023-03-22T06:53:50;100725.28;;;16.10;100.00
56402;BME280;42299;35.160;26.100;2023-03-22T06:55:12;100733.16;;;16.22;100.00
56402;BME280;42299;35.160;26.100;2023-03-22T06:56:35;100731.31;;;16.30;100.00
56402;BME280;42299;35.160;26.100;2023-03-22T06:58:03;100731.28;;;16.36;100.00
56402;BME280;42299;35.160;26.100;2023-03-22T06:59:25;100724.09;;;16.46;100.00
56402;BME280;42299;35.160;26.100;2023-03-22T07:00:46;100726.66;;;16.56;100.00
56402;BME280;42299;35.160;26.100;2023-03-22T07:02:11;100729.28;;;16.65;100.00
56402;BME280;42299;35.160;26.100;2023-03-22T07:03:37;100720.28;;;16.74;100.00
56402;BME280;42299;35.160;26.100;2023-03-22T07:05:08;100721.09;;;16.84;100.00
56402;BME280;42299;35.160;26.100;2023-03-22T07:06:30;100715.66;;;16.91;100.00
56402;BME280;42299;35.160;26.100;2023-03-22T07:07:53;100719.09;;;17.02;100.00
56402;BME280;42299;35.160;26.100;2023-03-22T07:09:17;100714.50;;;17.15;100.00
56402;BME280;42299;35.160;26.100;2023-03-22T07:10:42;100715.31;;;17.22;100.00
56402;BME280;42299;35.160;26.100;2023-03-22T07:12:05;100717.94;;;17.25;100.00
56402;BME280;42299;35.160;26.100;2023-03-22T07:13:27;100726.78;;;17.30;100.00
56402;BME280;42299;35.160;26.100;2023-03-22T07:14:53;100715.19;;;17.31;100.00
56402;BME280;42299;35.160;26.100;2023-03-22T07:16:33;100720.47;;;17.35;100.00
56402;BME280;42299;35.160;26.100;2023-03-22T07:17:58;100722.13;;;17.45;100.00
56402;BME280;42299;35.160;26.100;2023-03-22T07:19:21;100721.03;;;17.63;100.00
56402;BME280;42299;35.160;26.100;2023-03-22T07:20:44;100717.06;;;17.90;100.00
56402;BME280;42299;35.160;26.100;2023-03-22T07:22:07;100718.44;;;18.15;100.00
56402;BME280;42299;35.160;26.100;2023-03-22T07:23:30;100719.03;;;18.34;100.00
56402;BME280;42299;35.160;26.100;2023-03-22T07:25:00;100732.16;;;18.48;100.00
56402;BME280;42299;35.160;26.100;2023-03-22T07:26:24;100731.19;;;18.52;98.05
56402;BME280;42299;35.160;26.100;2023-03-22T07:27:48;100733.06;;;18.47;92.89
56402;BME280;42299;35.160;26.100;2023-03-22T07:29:10;100732.31;;;18.39;89.88